sensor_id;sensor_type;location;lat;lon;timestamp;P1;durP1;ratioP1;P2;durP2;ratioP2
47373;SDS011;33123;50.118;10.272;2022-07-21T00:00:23;1.55;;;1.38;;
47373;SDS011;33123;50.118;10.272;2022-07-21T00:02:51;1.27;;;1.17;;
47373;SDS011;33123;50.118;10.272;2022-07-21T00:05:18;1.77;;;1.50;;
47373;SDS011;33123;50.118;10.272;2022-07-21T00:07:45;2.20;;;1.98;;
47373;SDS011;33123;50.118;10.272;2022-07-21T00:10:13;1.30;;;1.20;;
47373;SDS011;33123;50.118;10.272;2022-07-21T00:12:40;3.20;;;1.35;;
47373;SDS011;33123;50.118;10.272;2022-07-21T00:15:07;1.75;;;1.50;;
47373;SDS011;33123;50.118;10.272;2022-07-21T00:17:36;7.97;;;2.10;;
47373;SDS011;33123;50.118;10.272;2022-07-21T00:20:03;1.25;;;1.20;;
47373;SDS011;33123;50.118;10.272;2022-07-21T00:22:32;2.28;;;1.70;;
47373;SDS011;33123;50.118;10.272;2022-07-21T00:24:59;1.95;;;1.80;;
47373;SDS011;33123;50.118;10.272;2022-07-21T00:27:25;1.23;;;1.13;;
47373;SDS011;33123;50.118;10.272;2022-07-21T00:29:52;1.52;;;1.42;;
47373;SDS011;33123;50.118;10.272;2022-07-21T00:32:19;1.40;;;1.30;;
47373;SDS011;33123;50.118;10.272;2022-07-21T00:34:47;1.42;;;1.33;;
47373;SDS011;33123;50.118;10.272;2022-07-21T00:37:13;1.70;;;1.60;;
47373;SDS011;33123;50.118;10.272;2022-07-21T00:39:40;1.27;;;1.17;;
47373;SDS011;33123;50.118;10.272;2022-07-21T00:42:06;1.60;;;1.50;;
47373;SDS011;33123;50.118;10.272;2022-07-21T00:44:33;2.55;;;1.77;;
47373;SDS011;33123;50.118;10.272;2022-07-21T00:47:00;1.63;;;1.52;;
47373;SDS011;33123;50.118;10.272;2022-07-21T00:49:26;1.52;;;1.42;;
47373;SDS011;33123;50.118;10.272;2022-07-21T00:51:54;1.17;;;1.15;;
47373;SDS011;33123;50.118;10.272;2022-07-21T00:54:21;2.10;;;1.90;;
47373;SDS011;33123;50.118;10.272;2022-07-21T00:56:48;2.22;;;2.03;;
47373;SDS011;33123;50.118;10.272;2022-07-21T00:59:14;1.95;;;1.40;;
47373;SDS011;33123;50.118;10.272;2022-07-21T01:01:42;1.70;;;1.60;;
47373;SDS011;33123;50.118;10.272;2022-07-21T01:04:08;2.45;;;1.98;;
47373;SDS011;33123;50.118;10.272;2022-07-21T01:06:35;3.58;;;1.60;;
47373;SDS011;33123;50.118;10.272;2022-07-21T01:09:03;1.38;;;1.27;;
47373;SDS011;33123;50.118;10.272;2022-07-21T01:11:30;4.60;;;2.10;;
47373;SDS011;33123;50.118;10.272;2022-07-21T01:13:57;1.58;;;1.48;;
47373;SDS011;33123;50.118;10.272;2022-07-21T01:16:24;1.45;;;1.35;;
47373;SDS011;33123;50.118;10.272;2022-07-21T01:18:51;1.40;;;1.30;;
47373;SDS011;33123;50.118;10.272;2022-07-21T01:21:26;2.08;;;1.88;;
47373;SDS011;33123;50.118;10.272;2022-07-21T01:23:54;1.95;;;1.80;;
47373;SDS011;33123;50.118;10.272;2022-07-21T01:26:22;2.95;;;2.65;;
47373;SDS011;33123;50.118;10.272;2022-07-21T01:28:48;2.25;;;1.50;;
47373;SDS011;33123;50.118;10.272;2022-07-21T01:31:15;1.83;;;1.70;;
47373;SDS011;33123;50.118;10.272;2022-07-21T01:33:42;2.00;;;1.80;;
47373;SDS011;33123;50.118;10.272;2022-07-21T01:36:09;1.77;;;1.67;;
47373;SDS011;33123;50.118;10.272;2022-07-21T01:38:37;1.70;;;1.60;;
47373;SDS011;33123;50.118;10.272;2022-07-21T01:41:36;2.53;;;2.08;;
47373;SDS011;33123;50.118;10.272;2022-07-21T01:44:03;1.88;;;1.67;;
47373;SDS011;33123;50.118;10.272;2022-07-21T01:46:33;1.90;;;1.80;;
47373;SDS011;33123;50.118;10.272;2022-07-21T01:49:04;1.98;;;1.88;;
47373;SDS011;33123;50.118;10.272;2022-07-21T01:51:31;4.05;;;1.73;;
47373;SDS011;33123;50.118;10.272;2022-07-21T01:54:00;4.30;;;2.05;;
47373;SDS011;33123;50.118;10.272;2022-07-21T01:56:27;2.35;;;2.15;;
47373;SDS011;33123;50.118;10.272;2022-07-21T01:58:55;2.60;;;2.25;;
47373;SDS011;33123;50.118;10.272;2022-07-21T02:01:23;2.00;;;1.80;;
47373;SDS011;33123;50.118;10.272;2022-07-21T02:03:52;2.33;;;2.10;;
47373;SDS011;33123;50.118;10.272;2022-07-21T02:06:19;1.73;;;1.63;;
47373;SDS011;33123;50.118;10.272;2022-07-21T02:08:46;1.23;;;1.13;;
47373;SDS011;33123;50.118;10.272;2022-07-21T02:11:14;4.10;;;1.75;;
47373;SDS011;33123;50.118;10.272;2022-07-21T02:13:42;2.25;;;2.05;;
47373;SDS011;33123;50.118;10.272;2022-07-21T02:16:09;1.98;;;1.80;;
47373;SDS011;33123;50.118;10.272;2022-07-21T02:18:36;3.00;;;2.35;;
47373;SDS011;33123;50.118;10.272;2022-07-21T02:21:03;2.30;;;2.10;;
47373;SDS011;33123;50.118;10.272;2022-07-21T02:23:31;2.00;;;1.80;;
47373;SDS011;33123;50.118;10.272;2022-07-21T02:25:59;2.22;;;1.95;;
47373;SDS011;33123;50.118;10.272;2022-07-21T02:28:27;2.38;;;1.80;;
47373;SDS011;33123;50.118;10.272;2022-07-21T02:30:53;2.65;;;2.22;;
47373;SDS011;33123;50.118;10.272;2022-07-21T02:33:21;2.45;;;2.13;;
47373;SDS011;33123;50.118;10.272;2022-07-21T02:35:47;2.10;;;1.77;;
47373;SDS011;33123;50.118;10.272;2022-07-21T02:38:14;2.05;;;1.90;;
47373;SDS011;33123;50.118;10.272;2022-07-21T02:40:41;2.20;;;2.00;;
47373;SDS011;33123;50.118;10.272;2022-07-21T02:43:08;3.83;;;2.33;;
47373;SDS011;33123;50.118;10.272;2022-07-21T02:48:55;2.00;;;1.75;;
47373;SDS011;33123;50.118;10.272;2022-07-21T02:51:22;2.50;;;1.88;;
47373;SDS011;33123;50.118;10.272;2022-07-21T02:53:48;2.60;;;2.40;;
47373;SDS011;33123;50.118;10.272;2022-07-21T02:56:15;3.83;;;2.00;;
47373;SDS011;33123;50.118;10.272;2022-07-21T02:58:43;2.58;;;1.98;;
47373;SDS011;33123;50.118;10.272;2022-07-21T03:01:09;4.15;;;2.28;;
47373;SDS011;33123;50.118;10.272;2022-07-21T03:03:36;2.50;;;2.30;;
47373;SDS011;33123;50.118;10.272;2022-07-21T03:06:04;2.40;;;2.20;;
47373;SDS011;33123;50.118;10.272;2022-07-21T03:08:32;2.40;;;2.05;;
47373;SDS011;33123;50.118;10.272;2022-07-21T03:10:58;2.35;;;2.15;;
47373;SDS011;33123;50.118;10.272;2022-07-21T03:13:25;2.45;;;2.22;;
47373;SDS011;33123;50.118;10.272;2022-07-21T03:15:52;2.05;;;1.95;;
47373;SDS011;33123;50.118;10.272;2022-07-21T03:18:19;2.90;;;2.60;;
47373;SDS011;33123;50.118;10.272;2022-07-21T03:20:46;2.72;;;2.50;;
47373;SDS011;33123;50.118;10.272;2022-07-21T03:23:14;5.00;;;2.70;;
47373;SDS011;33123;50.118;10.272;2022-07-21T03:25:40;2.00;;;1.80;;
47373;SDS011;33123;50.118;10.272;2022-07-21T03:28:07;2.72;;;2.42;;
47373;SDS011;33123;50.118;10.272;2022-07-21T03:30:34;3.25;;;2.70;;
47373;SDS011;33123;50.118;10.272;2022-07-21T03:33:02;2.35;;;2.03;;
47373;SDS011;33123;50.118;10.272;2022-07-21T03:35:29;2.80;;;2.42;;
47373;SDS011;33123;50.118;10.272;2022-07-21T03:38:10;3.63;;;2.60;;
47373;SDS011;33123;50.118;10.272;2022-07-21T03:40:38;7.03;;;3.17;;
47373;SDS011;33123;50.118;10.272;2022-07-21T03:43:05;2.88;;;2.40;;
47373;SDS011;33123;50.118;10.272;2022-07-21T03:45:34;2.85;;;2.65;;
47373;SDS011;33123;50.118;10.272;2022-07-21T03:48:03;3.05;;;2.40;;
47373;SDS011;33123;50.118;10.272;2022-07-21T03:50:32;2.97;;;2.67;;
47373;SDS011;33123;50.118;10.272;2022-07-21T03:53:00;3.33;;;2.97;;
47373;SDS011;33123;50.118;10.272;2022-07-21T03:55:28;2.67;;;2.47;;
47373;SDS011;33123;50.118;10.272;2022-07-21T03:57:57;2.80;;;2.50;;
47373;SDS011;33123;50.118;10.272;2022-07-21T04:00:26;2.70;;;2.50;;
47373;SDS011;33123;50.118;10.272;2022-07-21T04:02:54;3.28;;;2.97;;
47373;SDS011;33123;50.118;10.272;2022-07-21T04:05:21;3.08;;;2.83;;
47373;SDS011;33123;50.118;10.272;2022-07-21T04:07:48;3.38;;;2.30;;
47373;SDS011;33123;50.118;10.272;2022-07-21T04:10:17;3.53;;;3.22;;
47373;SDS011;33123;50.118;10.272;2022-07-21T04:12:45;3.25;;;2.92;;
47373;SDS011;33123;50.118;10.272;2022-07-21T04:15:14;2.28;;;2.10;;
47373;SDS011;33123;50.118;10.272;2022-07-21T04:17:40;3.00;;;2.70;;
47373;SDS011;33123;50.118;10.272;2022-07-21T04:20:10;3.30;;;2.38;;
47373;SDS011;33123;50.118;10.272;2022-07-21T04:22:39;2.80;;;2.53;;
47373;SDS011;33123;50.118;10.272;2022-07-21T04:25:06;2.63;;;2.38;;
47373;SDS011;33123;50.118;10.272;2022-07-21T04:27:33;2.85;;;2.58;;
47373;SDS011;33123;50.118;10.272;2022-07-21T04:30:00;2.80;;;2.15;;
47373;SDS011;33123;50.118;10.272;2022-07-21T04:32:29;3.22;;;2.92;;
47373;SDS011;33123;50.118;10.272;2022-07-21T04:34:55;2.38;;;2.17;;
47373;SDS011;33123;50.118;10.272;2022-07-21T04:37:22;2.40;;;2.20;;
47373;SDS011;33123;50.118;10.272;2022-07-21T04:39:49;2.45;;;2.25;;
47373;SDS011;33123;50.118;10.272;2022-07-21T04:42:15;4.30;;;2.63;;
47373;SDS011;33123;50.118;10.272;2022-07-21T04:44:42;4.30;;;3.33;;
47373;SDS011;33123;50.118;10.272;2022-07-21T04:47:09;3.13;;;2.45;;
47373;SDS011;33123;50.118;10.272;2022-07-21T04:49:37;2.50;;;2.25;;
47373;SDS011;33123;50.118;10.272;2022-07-21T04:52:04;2.85;;;2.65;;
47373;SDS011;33123;50.118;10.272;2022-07-21T04:54:31;4.72;;;1.90;;
47373;SDS011;33123;50.118;10.272;2022-07-21T04:56:58;2.42;;;2.17;;
47373;SDS011;33123;50.118;10.272;2022-07-21T04:59:27;10.32;;;2.28;;
47373;SDS011;33123;50.118;10.272;2022-07-21T05:01:54;2.40;;;2.20;;
47373;SDS011;33123;50.118;10.272;2022-07-21T05:04:20;2.78;;;2.47;;
47373;SDS011;33123;50.118;10.272;2022-07-21T05:06:48;2.53;;;2.10;;
47373;SDS011;33123;50.118;10.272;2022-07-21T05:09:15;2.67;;;2.47;;
47373;SDS011;33123;50.118;10.272;2022-07-21T05:11:42;2.78;;;2.58;;
47373;SDS011;33123;50.118;10.272;2022-07-21T05:14:08;2.90;;;2.55;;
47373;SDS011;33123;50.118;10.272;2022-07-21T05:16:35;2.47;;;2.28;;
47373;SDS011;33123;50.118;10.272;2022-07-21T05:19:02;2.33;;;2.13;;
47373;SDS011;33123;50.118;10.272;2022-07-21T05:21:29;2.88;;;2.67;;
47373;SDS011;33123;50.118;10.272;2022-07-21T05:23:57;2.70;;;2.33;;
47373;SDS011;33123;50.118;10.272;2022-07-21T05:26:23;2.25;;;2.05;;
47373;SDS011;33123;50.118;10.272;2022-07-21T05:28:50;3.33;;;2.65;;
47373;SDS011;33123;50.118;10.272;2022-07-21T05:31:17;2.08;;;1.88;;
47373;SDS011;33123;50.118;10.272;2022-07-21T05:33:44;3.60;;;3.28;;
47373;SDS011;33123;50.118;10.272;2022-07-21T05:36:10;3.90;;;2.88;;
47373;SDS011;33123;50.118;10.272;2022-07-21T05:38:37;2.45;;;2.25;;
47373;SDS011;33123;50.118;10.272;2022-07-21T05:41:06;3.95;;;2.08;;
47373;SDS011;33123;50.118;10.272;2022-07-21T05:43:32;2.63;;;2.17;;
47373;SDS011;33123;50.118;10.272;2022-07-21T05:45:59;3.03;;;2.10;;
47373;SDS011;33123;50.118;10.272;2022-07-21T05:48:26;2.75;;;2.50;;
47373;SDS011;33123;50.118;10.272;2022-07-21T05:50:52;2.70;;;2.17;;
47373;SDS011;33123;50.118;10.272;2022-07-21T05:53:19;2.95;;;2.67;;
47373;SDS011;33123;50.118;10.272;2022-07-21T05:55:47;2.60;;;2.40;;
47373;SDS011;33123;50.118;10.272;2022-07-21T05:58:15;2.35;;;2.15;;
47373;SDS011;33123;50.118;10.272;2022-07-21T06:00:43;2.30;;;2.10;;
47373;SDS011;33123;50.118;10.272;2022-07-21T06:03:30;3.05;;;2.63;;
47373;SDS011;33123;50.118;10.272;2022-07-21T06:05:57;2.47;;;2.28;;
47373;SDS011;33123;50.118;10.272;2022-07-21T06:08:23;3.05;;;2.75;;
47373;SDS011;33123;50.118;10.272;2022-07-21T06:10:50;2.70;;;2.50;;
47373;SDS011;33123;50.118;10.272;2022-07-21T06:13:18;2.60;;;2.40;;
47373;SDS011;33123;50.118;10.272;2022-07-21T06:15:45;3.00;;;2.60;;
47373;SDS011;33123;50.118;10.272;2022-07-21T06:18:11;2.45;;;2.25;;
47373;SDS011;33123;50.118;10.272;2022-07-21T06:20:38;2.97;;;2.40;;
47373;SDS011;33123;50.118;10.272;2022-07-21T06:23:05;2.65;;;2.45;;
47373;SDS011;33123;50.118;10.272;2022-07-21T06:25:32;4.15;;;2.95;;
47373;SDS011;33123;50.118;10.272;2022-07-21T06:27:58;5.32;;;2.88;;
47373;SDS011;33123;50.118;10.272;2022-07-21T06:30:27;2.63;;;2.30;;
47373;SDS011;33123;50.118;10.272;2022-07-21T06:32:54;3.58;;;2.60;;
47373;SDS011;33123;50.118;10.272;2022-07-21T06:35:20;3.25;;;1.98;;
47373;SDS011;33123;50.118;10.272;2022-07-21T06:37:47;2.38;;;2.10;;
47373;SDS011;33123;50.118;10.272;2022-07-21T06:40:14;2.58;;;2.35;;
47373;SDS011;33123;50.118;10.272;2022-07-21T06:42:41;2.88;;;2.58;;
47373;SDS011;33123;50.118;10.272;2022-07-21T06:45:08;3.28;;;2.75;;
47373;SDS011;33123;50.118;10.272;2022-07-21T06:47:36;3.25;;;2.55;;
47373;SDS011;33123;50.118;10.272;2022-07-21T06:50:03;2.35;;;2.15;;
47373;SDS011;33123;50.118;10.272;2022-07-21T06:52:31;2.42;;;2.22;;
47373;SDS011;33123;50.118;10.272;2022-07-21T06:54:59;2.13;;;1.90;;
47373;SDS011;33123;50.118;10.272;2022-07-21T06:57:25;2.10;;;1.90;;
47373;SDS011;33123;50.118;10.272;2022-07-21T06:59:52;4.28;;;2.22;;
47373;SDS011;33123;50.118;10.272;2022-07-21T07:02:18;3.28;;;2.45;;
47373;SDS011;33123;50.118;10.272;2022-07-21T07:04:46;3.00;;;2.42;;
47373;SDS011;33123;50.118;10.272;2022-07-21T07:07:13;2.05;;;1.92;;
47373;SDS011;33123;50.118;10.272;2022-07-21T07:09:40;2.47;;;2.28;;
47373;SDS011;33123;50.118;10.272;2022-07-21T07:12:07;1.80;;;1.60;;
47373;SDS011;33123;50.118;10.272;2022-07-21T07:14:34;2.20;;;2.00;;
47373;SDS011;33123;50.118;10.272;2022-07-21T07:17:02;2.13;;;1.92;;
47373;SDS011;33123;50.118;10.272;2022-07-21T07:19:30;10.85;;;2.50;;
47373;SDS011;33123;50.118;10.272;2022-07-21T07:21:58;1.80;;;1.70;;
47373;SDS011;33123;50.118;10.272;2022-07-21T07:24:24;2.88;;;1.98;;
47373;SDS011;33123;50.118;10.272;2022-07-21T07:26:51;1.98;;;1.80;;
47373;SDS011;33123;50.118;10.272;2022-07-21T07:29:18;2.45;;;2.25;;
47373;SDS011;33123;50.118;10.272;2022-07-21T07:31:44;2.42;;;2.10;;
47373;SDS011;33123;50.118;10.272;2022-07-21T07:34:11;1.70;;;1.60;;
47373;SDS011;33123;50.118;10.272;2022-07-21T07:36:38;2.20;;;1.85;;
47373;SDS011;33123;50.118;10.272;2022-07-21T07:39:06;1.88;;;1.77;;
47373;SDS011;33123;50.118;10.272;2022-07-21T07:41:32;1.55;;;1.45;;
47373;SDS011;33123;50.118;10.272;2022-07-21T07:43:59;1.95;;;1.58;;
47373;SDS011;33123;50.118;10.272;2022-07-21T07:46:25;1.70;;;1.55;;
47373;SDS011;33123;50.118;10.272;2022-07-21T07:48:52;1.90;;;1.70;;
47373;SDS011;33123;50.118;10.272;2022-07-21T07:51:19;2.22;;;2.03;;
47373;SDS011;33123;50.118;10.272;2022-07-21T07:53:46;1.58;;;1.48;;
47373;SDS011;33123;50.118;10.272;2022-07-21T07:56:14;2.00;;;1.80;;
47373;SDS011;33123;50.118;10.272;2022-07-21T07:58:40;1.73;;;1.63;;
47373;SDS011;33123;50.118;10.272;2022-07-21T08:01:07;1.60;;;1.50;;
47373;SDS011;33123;50.118;10.272;2022-07-21T08:03:34;1.70;;;1.60;;
47373;SDS011;33123;50.118;10.272;2022-07-21T08:06:01;1.42;;;1.33;;
47373;SDS011;33123;50.118;10.272;2022-07-21T08:08:30;2.08;;;1.60;;
47373;SDS011;33123;50.118;10.272;2022-07-21T08:10:57;1.70;;;1.60;;
47373;SDS011;33123;50.118;10.272;2022-07-21T08:13:25;2.38;;;2.03;;
47373;SDS011;33123;50.118;10.272;2022-07-21T08:15:52;1.67;;;1.58;;
47373;SDS011;33123;50.118;10.272;2022-07-21T08:18:19;1.88;;;1.50;;
47373;SDS011;33123;50.118;10.272;2022-07-21T08:20:46;1.52;;;1.42;;
47373;SDS011;33123;50.118;10.272;2022-07-21T08:23:13;1.58;;;1.48;;
47373;SDS011;33123;50.118;10.272;2022-07-21T08:25:41;2.03;;;1.65;;
47373;SDS011;33123;50.118;10.272;2022-07-21T08:28:08;1.48;;;1.38;;
47373;SDS011;33123;50.118;10.272;2022-07-21T08:30:37;1.55;;;1.30;;
47373;SDS011;33123;50.118;10.272;2022-07-21T08:33:04;1.08;;;1.05;;
47373;SDS011;33123;50.118;10.272;2022-07-21T08:35:31;2.45;;;1.75;;
47373;SDS011;33123;50.118;10.272;2022-07-21T08:37:59;1.63;;;1.50;;
47373;SDS011;33123;50.118;10.272;2022-07-21T08:40:27;2.00;;;1.90;;
47373;SDS011;33123;50.118;10.272;2022-07-21T08:42:55;1.00;;;1.00;;
47373;SDS011;33123;50.118;10.272;2022-07-21T08:45:21;1.30;;;1.20;;
47373;SDS011;33123;50.118;10.272;2022-07-21T08:47:51;2.15;;;1.42;;
47373;SDS011;33123;50.118;10.272;2022-07-21T08:50:18;2.03;;;1.30;;
47373;SDS011;33123;50.118;10.272;2022-07-21T08:52:45;1.52;;;1.42;;
47373;SDS011;33123;50.118;10.272;2022-07-21T08:55:12;1.27;;;1.17;;
47373;SDS011;33123;50.118;10.272;2022-07-21T08:57:39;2.30;;;1.83;;
47373;SDS011;33123;50.118;10.272;2022-07-21T09:00:07;1.23;;;1.13;;
47373;SDS011;33123;50.118;10.272;2022-07-21T09:02:35;1.33;;;1.23;;
47373;SDS011;33123;50.118;10.272;2022-07-21T09:05:05;1.33;;;1.23;;
47373;SDS011;33123;50.118;10.272;2022-07-21T09:07:46;1.05;;;1.05;;
47373;SDS011;33123;50.118;10.272;2022-07-21T09:10:14;1.15;;;1.13;;
47373;SDS011;33123;50.118;10.272;2022-07-21T09:12:47;0.95;;;0.95;;
47373;SDS011;33123;50.118;10.272;2022-07-21T09:15:16;1.45;;;1.35;;
47373;SDS011;33123;50.118;10.272;2022-07-21T09:17:44;1.20;;;1.10;;
47373;SDS011;33123;50.118;10.272;2022-07-21T09:20:22;1.08;;;1.05;;
47373;SDS011;33123;50.118;10.272;2022-07-21T09:23:06;1.02;;;1.00;;
47373;SDS011;33123;50.118;10.272;2022-07-21T09:25:35;1.00;;;1.00;;
47373;SDS011;33123;50.118;10.272;2022-07-21T09:28:10;0.93;;;0.93;;
47373;SDS011;33123;50.118;10.272;2022-07-21T09:30:49;1.30;;;1.23;;
47373;SDS011;33123;50.118;10.272;2022-07-21T09:33:22;1.63;;;1.35;;
47373;SDS011;33123;50.118;10.272;2022-07-21T09:35:58;1.48;;;1.38;;
47373;SDS011;33123;50.118;10.272;2022-07-21T09:38:27;1.10;;;1.10;;
47373;SDS011;33123;50.118;10.272;2022-07-21T09:40:55;1.50;;;1.40;;
47373;SDS011;33123;50.118;10.272;2022-07-21T09:43:30;1.50;;;1.40;;
47373;SDS011;33123;50.118;10.272;2022-07-21T09:45:59;2.45;;;1.98;;
47373;SDS011;33123;50.118;10.272;2022-07-21T09:48:34;1.13;;;1.05;;
47373;SDS011;33123;50.118;10.272;2022-07-21T09:53:56;1.17;;;1.08;;
47373;SDS011;33123;50.118;10.272;2022-07-21T09:56:25;1.02;;;1.02;;
47373;SDS011;33123;50.118;10.272;2022-07-21T09:58:54;1.70;;;1.00;;
47373;SDS011;33123;50.118;10.272;2022-07-21T10:01:22;1.38;;;1.27;;
47373;SDS011;33123;50.118;10.272;2022-07-21T10:03:50;1.25;;;1.15;;
47373;SDS011;33123;50.118;10.272;2022-07-21T10:06:18;0.90;;;0.90;;
47373;SDS011;33123;50.118;10.272;2022-07-21T10:08:47;1.52;;;1.42;;
47373;SDS011;33123;50.118;10.272;2022-07-21T10:11:14;1.92;;;1.65;;
47373;SDS011;33123;50.118;10.272;2022-07-21T10:13:41;1.83;;;1.30;;
47373;SDS011;33123;50.118;10.272;2022-07-21T10:16:09;1.45;;;1.35;;
47373;SDS011;33123;50.118;10.272;2022-07-21T10:18:39;2.20;;;1.45;;
47373;SDS011;33123;50.118;10.272;2022-07-21T10:21:21;1.10;;;1.08;;
47373;SDS011;33123;50.118;10.272;2022-07-21T10:23:57;1.23;;;1.13;;
47373;SDS011;33123;50.118;10.272;2022-07-21T10:26:24;3.80;;;1.50;;
47373;SDS011;33123;50.118;10.272;2022-07-21T10:28:51;1.10;;;1.10;;
47373;SDS011;33123;50.118;10.272;2022-07-21T10:31:18;1.00;;;1.00;;
47373;SDS011;33123;50.118;10.272;2022-07-21T10:33:53;4.80;;;2.17;;
47373;SDS011;33123;50.118;10.272;2022-07-21T10:36:43;1.00;;;1.00;;
47373;SDS011;33123;50.118;10.272;2022-07-21T10:39:18;0.95;;;0.95;;
47373;SDS011;33123;50.118;10.272;2022-07-21T10:41:48;1.00;;;1.00;;
47373;SDS011;33123;50.118;10.272;2022-07-21T10:47:10;0.80;;;0.80;;
47373;SDS011;33123;50.118;10.272;2022-07-21T10:49:45;0.90;;;0.90;;
47373;SDS011;33123;50.118;10.272;2022-07-21T10:55:20;1.58;;;1.48;;
47373;SDS011;33123;50.118;10.272;2022-07-21T11:00:51;1.20;;;1.02;;
47373;SDS011;33123;50.118;10.272;2022-07-21T11:03:22;1.05;;;1.05;;
47373;SDS011;33123;50.118;10.272;2022-07-21T11:08:52;0.90;;;0.90;;
47373;SDS011;33123;50.118;10.272;2022-07-21T11:11:33;1.20;;;1.10;;
47373;SDS011;33123;50.118;10.272;2022-07-21T11:14:03;1.30;;;1.20;;
47373;SDS011;33123;50.118;10.272;2022-07-21T11:19:31;1.63;;;1.10;;
47373;SDS011;33123;50.118;10.272;2022-07-21T11:22:01;0.90;;;0.90;;
47373;SDS011;33123;50.118;10.272;2022-07-21T11:24:30;0.82;;;0.82;;
47373;SDS011;33123;50.118;10.272;2022-07-21T11:26:59;1.45;;;1.35;;
47373;SDS011;33123;50.118;10.272;2022-07-21T11:29:26;1.30;;;1.20;;
47373;SDS011;33123;50.118;10.272;2022-07-21T11:31:54;1.00;;;1.00;;
47373;SDS011;33123;50.118;10.272;2022-07-21T11:34:21;2.22;;;1.35;;
47373;SDS011;33123;50.118;10.272;2022-07-21T11:36:49;1.40;;;1.30;;
47373;SDS011;33123;50.118;10.272;2022-07-21T11:39:24;1.50;;;1.40;;
47373;SDS011;33123;50.118;10.272;2022-07-21T11:41:52;2.15;;;1.48;;
47373;SDS011;33123;50.118;10.272;2022-07-21T11:44:23;0.90;;;0.90;;
47373;SDS011;33123;50.118;10.272;2022-07-21T11:46:52;1.02;;;1.02;;
47373;SDS011;33123;50.118;10.272;2022-07-21T11:49:20;1.10;;;1.05;;
47373;SDS011;33123;50.118;10.272;2022-07-21T11:51:48;1.08;;;1.00;;
47373;SDS011;33123;50.118;10.272;2022-07-21T11:54:20;0.70;;;0.70;;
47373;SDS011;33123;50.118;10.272;2022-07-21T11:56:48;0.88;;;0.88;;
47373;SDS011;33123;50.118;10.272;2022-07-21T11:59:15;1.00;;;1.00;;
47373;SDS011;33123;50.118;10.272;2022-07-21T12:01:53;1.08;;;1.00;;
47373;SDS011;33123;50.118;10.272;2022-07-21T12:07:15;0.98;;;0.98;;
47373;SDS011;33123;50.118;10.272;2022-07-21T12:09:46;0.73;;;0.73;;
47373;SDS011;33123;50.118;10.272;2022-07-21T12:12:15;0.70;;;0.70;;
47373;SDS011;33123;50.118;10.272;2022-07-21T12:14:53;1.08;;;1.05;;
47373;SDS011;33123;50.118;10.272;2022-07-21T12:17:32;0.80;;;0.80;;
47373;SDS011;33123;50.118;10.272;2022-07-21T12:20:00;0.70;;;0.70;;
47373;SDS011;33123;50.118;10.272;2022-07-21T12:22:34;1.20;;;1.10;;
47373;SDS011;33123;50.118;10.272;2022-07-21T12:25:03;1.10;;;1.05;;
47373;SDS011;33123;50.118;10.272;2022-07-21T12:27:32;1.00;;;1.00;;
47373;SDS011;33123;50.118;10.272;2022-07-21T12:30:00;0.88;;;0.88;;
47373;SDS011;33123;50.118;10.272;2022-07-21T12:32:38;1.00;;;1.00;;
47373;SDS011;33123;50.118;10.272;2022-07-21T12:35:16;0.80;;;0.80;;
47373;SDS011;33123;50.118;10.272;2022-07-21T12:38:00;0.90;;;0.90;;
47373;SDS011;33123;50.118;10.272;2022-07-21T12:40:29;0.90;;;0.88;;
47373;SDS011;33123;50.118;10.272;2022-07-21T12:43:08;0.65;;;0.65;;
47373;SDS011;33123;50.118;10.272;2022-07-21T12:45:46;0.80;;;0.80;;
47373;SDS011;33123;50.118;10.272;2022-07-21T12:48:17;1.30;;;1.10;;
47373;SDS011;33123;50.118;10.272;2022-07-21T12:50:57;0.80;;;0.80;;
47373;SDS011;33123;50.118;10.272;2022-07-21T12:53:28;1.05;;;1.00;;
47373;SDS011;33123;50.118;10.272;2022-07-21T12:55:56;1.30;;;1.20;;
47373;SDS011;33123;50.118;10.272;2022-07-21T12:58:23;0.80;;;0.80;;
47373;SDS011;33123;50.118;10.272;2022-07-21T13:00:50;0.80;;;0.80;;
47373;SDS011;33123;50.118;10.272;2022-07-21T13:03:18;0.90;;;0.90;;
47373;SDS011;33123;50.118;10.272;2022-07-21T13:05:45;0.85;;;0.85;;
47373;SDS011;33123;50.118;10.272;2022-07-21T13:08:12;1.38;;;1.27;;
47373;SDS011;33123;50.118;10.272;2022-07-21T13:10:38;0.70;;;0.70;;
47373;SDS011;33123;50.118;10.272;2022-07-21T13:13:05;0.88;;;0.88;;
47373;SDS011;33123;50.118;10.272;2022-07-21T13:15:32;1.08;;;1.02;;
47373;SDS011;33123;50.118;10.272;2022-07-21T13:17:58;0.80;;;0.80;;
47373;SDS011;33123;50.118;10.272;2022-07-21T13:20:26;1.30;;;1.20;;
47373;SDS011;33123;50.118;10.272;2022-07-21T13:22:53;0.98;;;0.98;;
47373;SDS011;33123;50.118;10.272;2022-07-21T13:25:20;0.90;;;0.90;;
47373;SDS011;33123;50.118;10.272;2022-07-21T13:27:47;0.85;;;0.85;;
47373;SDS011;33123;50.118;10.272;2022-07-21T13:30:13;1.30;;;1.27;;
47373;SDS011;33123;50.118;10.272;2022-07-21T13:32:41;0.80;;;0.80;;
47373;SDS011;33123;50.118;10.272;2022-07-21T13:35:08;1.08;;;1.05;;
47373;SDS011;33123;50.118;10.272;2022-07-21T13:37:36;1.02;;;0.65;;
47373;SDS011;33123;50.118;10.272;2022-07-21T13:40:03;1.08;;;1.05;;
47373;SDS011;33123;50.118;10.272;2022-07-21T13:42:31;0.98;;;0.95;;
47373;SDS011;33123;50.118;10.272;2022-07-21T13:44:57;1.27;;;1.17;;
47373;SDS011;33123;50.118;10.272;2022-07-21T13:47:24;1.42;;;1.33;;
47373;SDS011;33123;50.118;10.272;2022-07-21T13:49:51;1.15;;;1.00;;
47373;SDS011;33123;50.118;10.272;2022-07-21T13:52:18;0.82;;;0.82;;
47373;SDS011;33123;50.118;10.272;2022-07-21T13:54:46;0.77;;;0.77;;
47373;SDS011;33123;50.118;10.272;2022-07-21T13:57:13;1.00;;;0.90;;
47373;SDS011;33123;50.118;10.272;2022-07-21T13:59:39;1.40;;;1.30;;
47373;SDS011;33123;50.118;10.272;2022-07-21T14:02:06;0.95;;;0.90;;
47373;SDS011;33123;50.118;10.272;2022-07-21T14:04:33;0.88;;;0.88;;
47373;SDS011;33123;50.118;10.272;2022-07-21T14:07:00;1.20;;;1.10;;
47373;SDS011;33123;50.118;10.272;2022-07-21T14:09:27;0.70;;;0.70;;
47373;SDS011;33123;50.118;10.272;2022-07-21T14:11:55;0.70;;;0.70;;
47373;SDS011;33123;50.118;10.272;2022-07-21T14:14:22;1.20;;;1.10;;
47373;SDS011;33123;50.118;10.272;2022-07-21T14:16:52;1.00;;;1.00;;
47373;SDS011;33123;50.118;10.272;2022-07-21T14:19:19;1.15;;;1.08;;
47373;SDS011;33123;50.118;10.272;2022-07-21T14:21:47;1.02;;;1.02;;
47373;SDS011;33123;50.118;10.272;2022-07-21T14:24:14;0.80;;;0.80;;
47373;SDS011;33123;50.118;10.272;2022-07-21T14:26:59;1.20;;;1.10;;
47373;SDS011;33123;50.118;10.272;2022-07-21T14:29:26;1.00;;;1.00;;
47373;SDS011;33123;50.118;10.272;2022-07-21T14:31:53;1.20;;;1.10;;
47373;SDS011;33123;50.118;10.272;2022-07-21T14:34:20;1.65;;;1.55;;
47373;SDS011;33123;50.118;10.272;2022-07-21T14:36:46;1.38;;;1.27;;
47373;SDS011;33123;50.118;10.272;2022-07-21T14:39:13;1.30;;;1.20;;
47373;SDS011;33123;50.118;10.272;2022-07-21T14:41:40;0.77;;;0.77;;
47373;SDS011;33123;50.118;10.272;2022-07-21T14:44:08;1.05;;;0.95;;
47373;SDS011;33123;50.118;10.272;2022-07-21T14:46:35;0.82;;;0.82;;
47373;SDS011;33123;50.118;10.272;2022-07-21T14:49:01;1.30;;;1.20;;
47373;SDS011;33123;50.118;10.272;2022-07-21T14:51:29;1.10;;;1.00;;
47373;SDS011;33123;50.118;10.272;2022-07-21T14:53:56;0.75;;;0.75;;
47373;SDS011;33123;50.118;10.272;2022-07-21T14:56:22;0.85;;;0.85;;
47373;SDS011;33123;50.118;10.272;2022-07-21T14:58:49;1.13;;;1.02;;
47373;SDS011;33123;50.118;10.272;2022-07-21T15:01:17;1.48;;;1.38;;
47373;SDS011;33123;50.118;10.272;2022-07-21T15:03:43;1.00;;;1.00;;